createdAt,value
2023-05-06T00:01:25.514Z,85.22
2023-05-06T00:03:52.805Z,85.73
2023-05-06T00:06:20.680Z,85.69
2023-05-06T00:08:47.518Z,84.47
2023-05-06T00:11:14.368Z,83.38
2023-05-06T00:13:41.730Z,83.56
2023-05-06T00:16:08.898Z,83.40
2023-05-06T00:18:35.710Z,82.90
2023-05-06T00:21:02.674Z,83.63
2023-05-06T00:23:29.610Z,83.63
2023-05-06T00:25:56.517Z,83.75
2023-05-06T00:28:23.369Z,83.04
2023-05-06T00:30:50.947Z,81.75
2023-05-06T00:33:17.886Z,81.19
2023-05-06T00:35:44.851Z,82.25
2023-05-06T00:38:14.562Z,82.02
2023-05-06T00:40:42.611Z,82.50
2023-05-06T00:43:09.658Z,81.70
2023-05-06T00:45:37.885Z,81.71
2023-05-06T00:48:06.938Z,83.33
2023-05-06T00:50:34.912Z,84.00
2023-05-06T00:53:03.844Z,83.82
2023-05-06T00:55:31.162Z,85.21
2023-05-06T00:57:58.615Z,84.65
2023-05-06T01:00:25.850Z,83.76
2023-05-06T01:02:53.016Z,83.63
2023-05-06T01:05:25.396Z,83.53
2023-05-06T01:08:20.940Z,85.11
2023-05-06T01:11:04.932Z,86.50
2023-05-06T01:13:44.885Z,85.85
2023-05-06T01:16:14.614Z,88.04
2023-05-06T01:18:43.794Z,87.58
2023-05-06T01:21:12.272Z,87.25
2023-05-06T01:23:57.214Z,86.49
2023-05-06T01:26:25.007Z,84.89
2023-05-06T01:28:52.868Z,85.37
2023-05-06T01:31:24.521Z,84.85
2023-05-06T01:33:54.854Z,86.13
2023-05-06T01:36:48.420Z,86.56
2023-05-06T01:39:24.068Z,86.37
2023-05-06T01:41:53.281Z,87.29
2023-05-06T01:44:23.100Z,87.04
2023-05-06T01:46:51.466Z,86.86
2023-05-06T01:49:19.426Z,86.02
2023-05-06T01:51:52.830Z,85.96
2023-05-06T01:54:19.877Z,85.72
2023-05-06T01:56:46.709Z,85.88
2023-05-06T01:59:15.301Z,85.95
2023-05-06T02:01:42.047Z,85.44
2023-05-06T02:04:08.948Z,84.09
2023-05-06T02:06:36.235Z,83.33
2023-05-06T02:09:03.793Z,83.78
2023-05-06T02:11:32.986Z,83.34
2023-05-06T02:14:06.304Z,82.79
2023-05-06T02:16:34.484Z,82.79
2023-05-06T02:19:01.433Z,82.65
2023-05-06T02:21:28.236Z,83.71
2023-05-06T02:23:55.189Z,83.58
2023-05-06T02:26:22.235Z,83.28
2023-05-06T02:28:49.236Z,83.99
2023-05-06T02:31:16.316Z,84.22
2023-05-06T02:33:45.420Z,85.16
2023-05-06T02:36:12.169Z,86.52
2023-05-06T02:38:39.107Z,86.16
2023-05-06T02:41:05.961Z,84.80
2023-05-06T02:43:32.804Z,85.81
2023-05-06T02:45:59.673Z,86.52
2023-05-06T02:48:26.684Z,86.32
2023-05-06T02:50:53.531Z,85.56
2023-05-06T02:53:20.461Z,85.28
2023-05-06T02:55:47.414Z,85.72
2023-05-06T02:58:14.254Z,86.81
2023-05-06T03:00:41.296Z,86.71
2023-05-06T03:03:09.396Z,87.44
2023-05-06T03:05:36.415Z,87.30
2023-05-06T03:08:03.364Z,86.34
2023-05-06T03:10:30.915Z,86.30
2023-05-06T03:12:58.257Z,86.08
2023-05-06T03:15:25.502Z,86.86
2023-05-06T03:17:53.863Z,86.33
2023-05-06T03:20:23.833Z,84.98
2023-05-06T03:22:52.947Z,82.25
2023-05-06T03:25:20.777Z,81.23
2023-05-06T03:27:47.914Z,79.81
2023-05-06T03:30:19.849Z,76.92
2023-05-06T03:32:48.390Z,74.83
2023-05-06T03:35:19.444Z,74.30
2023-05-06T03:37:49.170Z,73.72
2023-05-06T03:40:16.475Z,70.48
2023-05-06T03:42:45.260Z,68.43
2023-05-06T03:45:12.922Z,67.02
2023-05-06T03:47:40.121Z,66.25
2023-05-06T03:50:07.864Z,64.03
2023-05-06T03:52:35.703Z,62.52
2023-05-06T03:55:02.750Z,61.84
2023-05-06T03:57:29.858Z,58.71
2023-05-06T03:59:57.140Z,61.77
2023-05-06T04:02:24.323Z,57.86
2023-05-06T04:04:51.836Z,57.37
2023-05-06T04:07:18.556Z,56.36
2023-05-06T04:09:45.481Z,55.07
2023-05-06T04:12:12.201Z,53.76
2023-05-06T04:14:42.186Z,51.96
2023-05-06T04:17:09.851Z,51.54
2023-05-06T04:19:37.659Z,50.21
2023-05-06T04:22:04.397Z,48.79
2023-05-06T04:24:31.282Z,48.01
2023-05-06T04:26:58.901Z,47.32
2023-05-06T04:29:26.492Z,46.68
2023-05-06T04:31:57.985Z,46.07
2023-05-06T04:34:27.164Z,45.28
2023-05-06T04:36:54.820Z,44.97
2023-05-06T04:39:33.736Z,43.86
2023-05-06T04:42:01.729Z,42.49
2023-05-06T04:44:33.832Z,42.10
2023-05-06T04:47:01.609Z,42.16
2023-05-06T04:49:28.685Z,41.14
2023-05-06T04:51:56.488Z,40.90
2023-05-06T04:54:23.268Z,40.84
2023-05-06T04:56:50.692Z,40.96
2023-05-06T04:59:18.210Z,41.33
2023-05-06T05:01:45.627Z,41.19
2023-05-06T05:04:12.562Z,40.32
2023-05-06T05:06:39.757Z,39.61
2023-05-06T05:09:06.562Z,38.98
2023-05-06T05:11:37.688Z,37.79
2023-05-06T05:14:04.432Z,37.12
2023-05-06T05:16:31.406Z,38.10
2023-05-06T05:18:59.836Z,37.49
2023-05-06T05:21:28.950Z,38.43
2023-05-06T05:23:56.060Z,37.45
2023-05-06T05:26:22.899Z,35.50
2023-05-06T05:28:50.877Z,36.01
2023-05-06T05:31:17.643Z,36.57
2023-05-06T05:33:44.956Z,36.06
2023-05-06T05:36:15.575Z,35.67
2023-05-06T05:38:43.413Z,35.14
2023-05-06T05:41:10.687Z,34.49
2023-05-06T05:43:37.959Z,34.90
2023-05-06T05:46:04.788Z,34.11
2023-05-06T05:48:32.444Z,33.15
2023-05-06T05:51:01.684Z,34.13
2023-05-06T05:53:28.753Z,33.10
2023-05-06T05:55:55.716Z,33.10
2023-05-06T05:58:22.724Z,32.61
2023-05-06T06:00:50.015Z,33.10
2023-05-06T06:03:18.075Z,31.69
2023-05-06T06:05:45.112Z,32.08
2023-05-06T06:08:12.662Z,32.46
2023-05-06T06:10:39.618Z,31.65
2023-05-06T06:13:11.066Z,31.42
2023-05-06T06:15:37.932Z,32.98
2023-05-06T06:18:07.572Z,31.38
2023-05-06T06:20:35.484Z,30.87
2023-05-06T06:23:02.765Z,30.42
2023-05-06T06:25:29.958Z,29.51
2023-05-06T06:27:56.809Z,29.92
2023-05-06T06:30:23.794Z,30.52
2023-05-06T06:32:51.957Z,29.05
2023-05-06T06:35:23.259Z,28.80
2023-05-06T06:37:51.150Z,29.07
2023-05-06T06:40:18.170Z,29.26
2023-05-06T06:42:46.067Z,28.69
2023-05-06T06:45:32.029Z,29.76
2023-05-06T06:47:58.896Z,30.44
2023-05-06T06:50:26.450Z,31.54
2023-05-06T06:52:53.170Z,31.41
2023-05-06T06:55:20.270Z,31.35
2023-05-06T06:57:47.656Z,31.84
2023-05-06T07:00:15.406Z,32.44
2023-05-06T07:02:42.385Z,32.11
2023-05-06T07:05:09.603Z,31.54
2023-05-06T07:07:36.602Z,31.75
2023-05-06T07:10:03.836Z,31.88
2023-05-06T07:12:30.604Z,32.45
2023-05-06T07:14:57.369Z,32.85
2023-05-06T07:17:24.286Z,33.36
2023-05-06T07:19:51.378Z,33.96
2023-05-06T07:22:18.162Z,32.68
2023-05-06T07:24:44.931Z,33.72
2023-05-06T07:27:11.713Z,33.46
2023-05-06T07:29:38.480Z,33.64
2023-05-06T07:32:05.711Z,31.54
2023-05-06T07:34:33.883Z,31.80
2023-05-06T07:37:01.200Z,32.58
2023-05-06T07:39:28.022Z,33.02
2023-05-06T07:41:54.801Z,32.86
2023-05-06T07:44:21.807Z,33.39
2023-05-06T07:46:48.875Z,33.51
2023-05-06T07:49:15.882Z,33.67
2023-05-06T07:51:43.556Z,34.24
2023-05-06T07:54:10.900Z,34.03
2023-05-06T07:56:39.481Z,33.94
2023-05-06T07:59:06.894Z,34.05
2023-05-06T08:01:33.600Z,33.33
2023-05-06T08:04:00.777Z,33.88
2023-05-06T08:06:27.976Z,32.81
2023-05-06T08:08:56.588Z,31.84
2023-05-06T08:11:23.517Z,33.07
2023-05-06T08:13:50.325Z,33.54
2023-05-06T08:16:17.222Z,33.04
2023-05-06T08:18:44.042Z,34.45
2023-05-06T08:21:10.924Z,33.66
2023-05-06T08:23:37.917Z,32.58
2023-05-06T08:26:04.715Z,31.97
2023-05-06T08:28:31.518Z,31.76
2023-05-06T08:30:58.351Z,31.35
2023-05-06T08:33:25.203Z,33.93
2023-05-06T08:35:52.535Z,33.78
2023-05-06T08:38:19.515Z,31.22
2023-05-06T08:40:48.087Z,30.08
2023-05-06T08:43:19.573Z,30.43
2023-05-06T08:45:46.918Z,29.81
2023-05-06T08:48:14.894Z,30.68
2023-05-06T08:50:43.340Z,30.17
2023-05-06T08:53:12.120Z,28.41
2023-05-06T08:55:42.690Z,27.48
2023-05-06T08:58:12.944Z,28.66
2023-05-06T09:00:39.839Z,29.94
2023-05-06T09:03:06.796Z,28.25
2023-05-06T09:05:33.806Z,27.95
2023-05-06T09:08:00.482Z,27.52
2023-05-06T09:10:47.629Z,26.34
2023-05-06T09:13:17.611Z,27.12
2023-05-06T09:15:46.973Z,27.34
2023-05-06T09:18:15.069Z,27.96
2023-05-06T09:20:48.162Z,27.39
2023-05-06T09:23:17.064Z,27.19
2023-05-06T09:25:45.764Z,27.38
2023-05-06T09:28:13.678Z,28.23
2023-05-06T09:30:42.350Z,28.77
2023-05-06T09:33:10.567Z,28.23
2023-05-06T09:35:39.950Z,27.98
2023-05-06T09:38:07.702Z,28.69
2023-05-06T09:40:36.192Z,28.01
2023-05-06T09:43:03.786Z,28.51
2023-05-06T09:45:31.026Z,27.15
2023-05-06T09:47:58.505Z,27.52
2023-05-06T09:50:26.195Z,27.17
2023-05-06T09:52:54.842Z,25.97
2023-05-06T09:55:23.109Z,26.32
2023-05-06T09:57:50.712Z,26.40
2023-05-06T10:00:18.417Z,25.97
2023-05-06T10:02:47.383Z,26.64
2023-05-06T10:05:14.821Z,27.60
2023-05-06T10:07:41.805Z,28.12
2023-05-06T10:10:11.068Z,27.97
2023-05-06T10:12:38.939Z,28.69
2023-05-06T10:15:06.637Z,28.45
2023-05-06T10:17:34.108Z,26.13
2023-05-06T10:20:02.096Z,26.58
2023-05-06T10:22:48.656Z,26.75
2023-05-06T10:25:45.105Z,27.49
2023-05-06T10:28:14.723Z,28.36
2023-05-06T10:30:57.949Z,29.56
2023-05-06T10:33:27.222Z,27.15
2023-05-06T10:36:10.075Z,28.47
2023-05-06T10:38:50.092Z,27.92
2023-05-06T10:41:17.621Z,27.56
2023-05-06T10:43:44.878Z,28.14
2023-05-06T10:46:16.561Z,27.69
2023-05-06T10:49:13.385Z,27.32
2023-05-06T10:51:43.326Z,27.24
2023-05-06T10:54:20.994Z,26.78
2023-05-06T10:56:47.822Z,26.31
2023-05-06T10:59:15.969Z,26.52
2023-05-06T11:01:43.959Z,26.32
2023-05-06T11:04:18.875Z,27.33
2023-05-06T11:06:48.444Z,26.37
2023-05-06T11:09:17.492Z,27.51
2023-05-06T11:11:48.105Z,26.79
2023-05-06T11:14:25.588Z,26.93
2023-05-06T11:16:53.974Z,26.36
2023-05-06T11:19:29.577Z,27.02
2023-05-06T11:21:58.699Z,27.57
2023-05-06T11:24:46.409Z,27.24
2023-05-06T11:27:17.073Z,27.71
2023-05-06T11:29:43.790Z,28.04
2023-05-06T11:32:22.734Z,28.48
2023-05-06T11:34:55.782Z,28.31
2023-05-06T11:37:27.149Z,28.44
2023-05-06T11:39:54.305Z,29.28
2023-05-06T11:42:25.701Z,28.92
2023-05-06T11:45:00.037Z,28.04
2023-05-06T11:47:26.821Z,28.01
2023-05-06T11:49:58.560Z,28.39
2023-05-06T11:52:25.289Z,27.80
2023-05-06T11:54:53.449Z,28.17
2023-05-06T11:57:20.515Z,28.92
2023-05-06T11:59:53.765Z,30.10
2023-05-06T12:02:20.860Z,29.89
2023-05-06T12:04:49.463Z,29.80
2023-05-06T12:07:16.618Z,28.57
2023-05-06T12:09:48.577Z,29.06
2023-05-06T12:12:19.041Z,29.50
2023-05-06T12:14:47.240Z,28.64
2023-05-06T12:17:15.105Z,29.17
2023-05-06T12:19:41.893Z,28.79
2023-05-06T12:22:19.890Z,28.52
2023-05-06T12:24:49.933Z,28.35
2023-05-06T12:27:32.574Z,28.20
2023-05-06T12:30:00.218Z,28.45
2023-05-06T12:32:27.084Z,28.85
2023-05-06T12:34:55.446Z,27.75
2023-05-06T12:37:29.496Z,27.85
2023-05-06T12:39:59.161Z,27.90
2023-05-06T12:42:27.004Z,28.58
2023-05-06T12:44:53.793Z,28.80
2023-05-06T12:47:22.781Z,28.93
2023-05-06T12:49:59.191Z,28.86
2023-05-06T12:52:29.175Z,29.01
2023-05-06T12:54:56.893Z,28.98
2023-05-06T12:57:23.776Z,29.16
2023-05-06T12:59:50.733Z,28.68
2023-05-06T13:02:18.143Z,28.41
2023-05-06T13:04:46.226Z,28.12
2023-05-06T13:07:13.037Z,27.94
2023-05-06T13:09:39.951Z,28.06
2023-05-06T13:12:06.887Z,28.68
2023-05-06T13:14:33.842Z,28.53
2023-05-06T13:17:06.160Z,27.46
2023-05-06T13:19:33.577Z,27.55
2023-05-06T13:22:01.181Z,27.93
2023-05-06T13:24:31.943Z,28.50
2023-05-06T13:27:02.393Z,27.80
2023-05-06T13:29:29.757Z,28.18
2023-05-06T13:31:57.176Z,28.45
2023-05-06T13:34:24.028Z,29.02
2023-05-06T13:36:51.580Z,28.53
2023-05-06T13:39:18.429Z,28.35
2023-05-06T13:41:49.802Z,29.91
2023-05-06T13:44:21.210Z,29.21
2023-05-06T13:46:48.065Z,29.67
2023-05-06T13:49:15.116Z,29.45
2023-05-06T13:51:41.861Z,29.09
2023-05-06T13:54:08.717Z,28.87
2023-05-06T13:56:35.644Z,29.01
2023-05-06T13:59:02.686Z,29.02
2023-05-06T14:01:30.786Z,29.04
2023-05-06T14:03:57.711Z,29.73
2023-05-06T14:06:24.442Z,30.23
2023-05-06T14:08:51.484Z,29.81
2023-05-06T14:11:18.234Z,29.55
2023-05-06T14:13:44.968Z,28.98
2023-05-06T14:16:11.832Z,29.10
2023-05-06T14:18:38.651Z,29.31
2023-05-06T14:21:05.595Z,29.59
2023-05-06T14:23:32.447Z,29.48
2023-05-06T14:25:59.588Z,29.28
2023-05-06T14:28:26.442Z,29.30
2023-05-06T14:30:53.683Z,29.59
2023-05-06T14:33:22.677Z,28.81
2023-05-06T14:35:52.089Z,29.03
2023-05-06T14:38:19.428Z,28.98
2023-05-06T14:40:46.332Z,29.55
2023-05-06T14:43:13.208Z,29.61
2023-05-06T14:45:40.139Z,29.51
2023-05-06T14:48:07.191Z,29.83
2023-05-06T14:50:34.055Z,29.63
2023-05-06T14:53:02.985Z,30.25
2023-05-06T14:55:30.702Z,30.36
2023-05-06T14:57:57.450Z,30.69
2023-05-06T15:00:24.798Z,31.05
2023-05-06T15:02:51.662Z,30.60
2023-05-06T15:05:18.863Z,30.75
2023-05-06T15:07:45.847Z,31.62
2023-05-06T15:10:12.682Z,31.41
2023-05-06T15:12:39.598Z,31.28
2023-05-06T15:15:07.449Z,31.72
2023-05-06T15:17:34.247Z,32.43
2023-05-06T15:20:01.489Z,32.43
2023-05-06T15:22:28.434Z,32.93
2023-05-06T15:24:55.277Z,32.97
2023-05-06T15:27:22.123Z,32.65
2023-05-06T15:29:49.058Z,32.59
2023-05-06T15:32:16.115Z,32.34
2023-05-06T15:34:43.062Z,32.65
2023-05-06T15:37:10.726Z,32.81
2023-05-06T15:39:37.698Z,32.76
2023-05-06T15:42:04.919Z,32.51
2023-05-06T15:44:33.090Z,32.55
2023-05-06T15:47:00.223Z,32.79
2023-05-06T15:49:49.303Z,32.73
2023-05-06T15:52:14.293Z,32.19
2023-05-06T15:54:41.322Z,32.12
2023-05-06T15:57:08.387Z,32.65
2023-05-06T15:59:35.227Z,33.01
2023-05-06T16:02:26.433Z,32.82
2023-05-06T16:04:49.238Z,33.50
2023-05-06T16:07:16.438Z,33.83
2023-05-06T16:09:43.690Z,33.92
2023-05-06T16:12:10.737Z,34.16
2023-05-06T16:14:37.491Z,34.53
2023-05-06T16:17:04.232Z,34.06
2023-05-06T16:19:34.335Z,34.49
2023-05-06T16:22:02.102Z,34.49
2023-05-06T16:24:28.840Z,34.18
2023-05-06T16:26:56.004Z,34.25
2023-05-06T16:29:22.839Z,34.43
2023-05-06T16:31:50.010Z,34.68
2023-05-06T16:34:16.937Z,35.10
2023-05-06T16:36:44.083Z,35.57
2023-05-06T16:39:11.535Z,36.10
2023-05-06T16:41:38.477Z,36.30
2023-05-06T16:44:05.521Z,36.23
2023-05-06T16:46:32.713Z,36.18
2023-05-06T16:49:00.678Z,36.22
2023-05-06T16:51:28.408Z,36.50
2023-05-06T16:53:55.765Z,36.76
2023-05-06T16:56:22.916Z,36.84
2023-05-06T16:58:49.858Z,37.09
2023-05-06T17:01:16.730Z,37.23
2023-05-06T17:03:43.541Z,37.72
2023-05-06T17:06:11.098Z,38.36
2023-05-06T17:08:37.946Z,38.57
2023-05-06T17:11:06.234Z,38.96
2023-05-06T17:13:33.986Z,38.49
2023-05-06T17:16:00.846Z,39.07
2023-05-06T17:18:27.667Z,39.85
2023-05-06T17:20:56.690Z,39.34
2023-05-06T17:23:24.418Z,40.70
2023-05-06T17:25:51.574Z,39.72
2023-05-06T17:28:19.011Z,40.35
2023-05-06T17:30:46.319Z,40.31
2023-05-06T17:33:13.335Z,39.76
2023-05-06T17:35:40.168Z,40.63
2023-05-06T17:38:07.327Z,40.71
2023-05-06T17:40:34.089Z,40.95
2023-05-06T17:43:01.107Z,41.86
2023-05-06T17:45:28.751Z,41.99
2023-05-06T17:47:55.910Z,42.04
2023-05-06T17:50:22.860Z,41.90
2023-05-06T17:52:52.086Z,42.02
2023-05-06T17:55:20.930Z,41.75
2023-05-06T17:57:48.195Z,42.03
2023-05-06T18:00:16.363Z,43.16
2023-05-06T18:02:44.109Z,42.57
2023-05-06T18:05:11.350Z,42.50
2023-05-06T18:07:38.928Z,42.76
2023-05-06T18:10:06.545Z,42.57
2023-05-06T18:12:33.454Z,42.32
2023-05-06T18:15:00.907Z,43.45
2023-05-06T18:17:27.930Z,43.44
2023-05-06T18:19:55.014Z,42.81
2023-05-06T18:22:22.459Z,43.31
2023-05-06T18:24:54.423Z,43.79
2023-05-06T18:27:22.245Z,44.05
2023-05-06T18:29:49.245Z,44.45
2023-05-06T18:32:16.381Z,43.25
2023-05-06T18:34:43.224Z,43.06
2023-05-06T18:37:10.396Z,44.17
2023-05-06T18:39:42.025Z,43.38
2023-05-06T18:42:09.082Z,43.13
2023-05-06T18:44:36.433Z,44.01
2023-05-06T18:47:03.279Z,43.63
2023-05-06T18:49:30.954Z,43.30
2023-05-06T18:51:57.794Z,43.80
2023-05-06T18:54:24.614Z,43.53
2023-05-06T18:56:51.501Z,43.04
2023-05-06T18:59:19.332Z,43.37
2023-05-06T19:01:46.373Z,43.45
2023-05-06T19:04:13.378Z,43.12
2023-05-06T19:06:40.571Z,43.19
2023-05-06T19:09:07.729Z,43.18
2023-05-06T19:11:34.879Z,43.09
2023-05-06T19:14:01.709Z,42.90
2023-05-06T19:16:28.892Z,42.89
2023-05-06T19:18:55.915Z,42.67
2023-05-06T19:21:22.753Z,42.43
2023-05-06T19:23:49.595Z,42.43
2023-05-06T19:26:16.437Z,42.18
2023-05-06T19:28:43.183Z,41.65
2023-05-06T19:31:10.715Z,41.60
2023-05-06T19:33:38.399Z,41.75
2023-05-06T19:36:06.062Z,41.53
2023-05-06T19:38:33.516Z,41.22
2023-05-06T19:41:00.788Z,41.00
2023-05-06T19:43:28.020Z,40.96
2023-05-06T19:45:55.307Z,40.93
2023-05-06T19:48:23.248Z,40.95
2023-05-06T19:50:53.361Z,40.94
2023-05-06T19:53:22.252Z,40.84
2023-05-06T19:55:49.193Z,40.83
2023-05-06T19:58:16.757Z,41.03
2023-05-06T20:00:44.627Z,41.16
2023-05-06T20:03:11.511Z,41.14
2023-05-06T20:05:38.417Z,41.09
2023-05-06T20:08:10.167Z,41.30
2023-05-06T20:10:37.934Z,41.53
2023-05-06T20:13:05.937Z,41.72
2023-05-06T20:15:33.402Z,41.78
2023-05-06T20:18:00.450Z,41.64
2023-05-06T20:20:33.490Z,41.68
2023-05-06T20:23:03.411Z,41.80
2023-05-06T20:25:30.760Z,41.72
2023-05-06T20:27:58.673Z,41.81
2023-05-06T20:30:26.054Z,41.75
2023-05-06T20:32:53.062Z,41.74
2023-05-06T20:35:19.978Z,41.79
2023-05-06T20:37:46.932Z,41.83
2023-05-06T20:40:13.968Z,41.60
2023-05-06T20:42:40.806Z,41.58
2023-05-06T20:45:08.832Z,41.61
2023-05-06T20:47:36.038Z,41.56
2023-05-06T20:50:03.046Z,41.52
2023-05-06T20:52:29.819Z,41.64
2023-05-06T20:54:57.486Z,41.57
2023-05-06T20:57:24.313Z,41.77
2023-05-06T20:59:51.869Z,41.48
2023-05-06T21:02:18.888Z,41.45
2023-05-06T21:04:46.173Z,41.56
2023-05-06T21:07:12.920Z,41.52
2023-05-06T21:09:39.858Z,41.65
2023-05-06T21:12:07.844Z,41.60
2023-05-06T21:14:34.781Z,41.48
2023-05-06T21:17:01.556Z,41.53
2023-05-06T21:19:28.457Z,41.91
2023-05-06T21:21:56.316Z,42.11
2023-05-06T21:24:23.161Z,42.30
2023-05-06T21:26:51.145Z,42.67
2023-05-06T21:29:18.082Z,42.44
2023-05-06T21:31:44.828Z,42.32
2023-05-06T21:34:11.655Z,42.13
2023-05-06T21:36:38.605Z,41.70
2023-05-06T21:39:08.110Z,41.54
2023-05-06T21:41:35.764Z,41.19
2023-05-06T21:44:03.938Z,41.00
2023-05-06T21:46:31.857Z,40.76
2023-05-06T21:48:59.809Z,40.51
2023-05-06T21:51:28.975Z,40.26
2023-05-06T21:53:55.793Z,40.24
2023-05-06T21:56:23.625Z,40.36
2023-05-06T21:58:50.829Z,40.35
2023-05-06T22:01:17.657Z,40.05
2023-05-06T22:03:45.509Z,40.31
2023-05-06T22:06:13.021Z,40.34
2023-05-06T22:08:43.219Z,40.33
2023-05-06T22:11:10.473Z,40.06
2023-05-06T22:13:37.315Z,40.01
2023-05-06T22:16:04.687Z,39.72
2023-05-06T22:18:31.713Z,39.82
2023-05-06T22:20:59.091Z,39.49
2023-05-06T22:23:27.551Z,39.60
2023-05-06T22:25:54.510Z,39.48
2023-05-06T22:28:21.336Z,39.69
2023-05-06T22:30:48.178Z,39.92
2023-05-06T22:33:15.230Z,40.13
2023-05-06T22:35:42.377Z,39.94
2023-05-06T22:38:09.227Z,39.78
2023-05-06T22:40:36.159Z,39.31
2023-05-06T22:43:05.459Z,39.55
2023-05-06T22:45:32.331Z,39.77
2023-05-06T22:47:59.294Z,40.12
2023-05-06T22:50:26.496Z,40.42
2023-05-06T22:52:53.346Z,40.42
2023-05-06T22:55:20.587Z,40.57
2023-05-06T22:57:49.482Z,40.53
2023-05-06T23:00:19.567Z,40.15
2023-05-06T23:02:46.589Z,40.47
2023-05-06T23:05:13.769Z,40.28
2023-05-06T23:07:40.845Z,40.53
2023-05-06T23:10:08.310Z,40.42
2023-05-06T23:12:35.572Z,40.20
2023-05-06T23:15:02.802Z,40.17
2023-05-06T23:17:30.831Z,39.77
2023-05-06T23:19:58.640Z,39.20
2023-05-06T23:22:26.409Z,39.35
2023-05-06T23:24:53.455Z,39.72
2023-05-06T23:27:20.295Z,39.78
2023-05-06T23:29:47.034Z,39.49
2023-05-06T23:32:13.976Z,39.33
2023-05-06T23:34:40.719Z,39.49
2023-05-06T23:37:07.464Z,39.15
2023-05-06T23:39:34.303Z,39.11
2023-05-06T23:42:01.659Z,38.92
2023-05-06T23:44:28.513Z,38.97
2023-05-06T23:46:55.641Z,38.87
2023-05-06T23:49:22.596Z,39.06
2023-05-06T23:51:49.437Z,39.22
2023-05-06T23:54:16.215Z,39.05
2023-05-06T23:56:43.022Z,38.97
2023-05-06T23:59:09.820Z,39.20
